Scroll down
FLIGHT INFORMATION
British Airways

BAW212

At Arrival Gate

EHAM
 KBOS
DATE: 2020-11-10
GATE: Y71
GATE DEPARTURE: 10:40
TAKEOFF: 10:58
DATE: 2020-11-10
GATE: E9
LANDING: 17:58
GATE ARRIVAL: 18:09
FLIGHT DATA
Crew: 
Speed: 
492 kts
Altitude: 
40,018 ft
Stage Length: 
2,995.3 nm
Block Time: 
7.5 hrs
Flight Time: 
7 hrs
Fuel Used: 
141,016 lb
Cleared Route: 
TRACK DATA
50,000 ft 1,000 kts
AIRCRAFT INFO AND CUMULATIVE STATS
Aircraft Type: 
B744
Registration: 
SELCAL: 
BPCE
MSN/LN: 
24051 / 784
Operator: 
Total Flights: 
2
Total Block Time: 
8.3 hrs
Total Flight Time: 
7.7 hrs
Total Fuel Time: 
-48,496 lb
DATALINK LOG | Newest first | Current as of: 2020-12-03 00:34:07
LABEL SEQUENCE CONTENT Dn/Up
5Z544910 NOV 20 18:12:52z / FLT DECK GOOD / ACF POS GOOD / GRND SERVICES GOOD / MAINT GOOD▼ Dn
QD504518:09 30.5▼ Dn
QC393817:58▼ Dn
2U2422KBOS 101754Z 25014KT 10SM FEW250 23/11 A3007 RMK AO2 SLP183 T02330111 10233 20094 58027▲ Up
2S2422KBOS▼ Dn
2U0907KBOS 101754Z 25014KT 10SM FEW250 23/11 A3007 RMK AO2 SLP183 T02330111 10233 20094 58027▲ Up
2S0907KBOS▼ Dn
GA5527GATE E9▲ Up
GR5517KBOS 17:51 MAAS 02 WCHR/S/C 01/00/00 HI-VAL NO DIPL/VIP YES▼ Dn
2U2447KBOS 101654Z 25009KT 10SM CLR 22/12 A3010 RMK AO2 SLP193 T02220122▲ Up
2S2447KBOS▼ Dn
2U3746KBOS 101454Z 21006KT 10SM CLR 18/12 A3015 RMK AO2 SLP210 T01780122 58009▲ Up
2S3746KBOS▼ Dn
464959/OV 5150N/263/305 /TM 1445 /FL370 /TP B744 /SK OVC /TA -56 /WV 336/104 /TB MOD /RM NONE▼ Dn
5U2135KBOS 101129Z 1012/1118 19007KT P6SM FEW250 FM101600 23009KT P6SM SKC FM110600 23010KT P6SM OVC025 FM110900 22010KT P6SM BKN015▲ Up
5S2135KBOS▼ Dn
2U2134KBOS 101154Z 16005KT 10SM CLR 09/07 A3018 RMK AO2 SLP219 T00940067 10122 20089 53001▲ Up
2S2134KBOS▼ Dn
5R2134TLA 11:47z FL360 MIMKU 12:16z PIKIL M0.83 144.0 -56 309/14 KBOS 17:50z▼ Dn
UM791942NO MATCHING FLIGHT DATA AVAILABLE FROM ANSP▲ Up
UM251932REQUESTING OCEANIC CLRNC CT EGGX CS EP PILIK FL 370 ETA 12:39 SPD M0.84▼ Dn
UM793801NO MATCHING FLIGHT DATA AVAILABLE FROM ANSP▲ Up
UM253751REQUESTING OCEANIC CLRNC CT EGGX CS EP PILIK FL 370 ETA 12:39 SPD M0.84▼ Dn
UM741236PROCEED DIRECT TO GODOS▲ Up
DM221226REQUEST DIRECT TO GODOS▼ Dn
QB031810:58▼ Dn
QA450010:40 172▼ Dn
A32803CLEARED TO KBOS VIA BERGI L602 SUPUR P1 GODOS M981 NATEB N97 TLA MIMKU PIKIL NATA ALLRY N358A EBONY AJJAY OOSHN5. SQUAWK 4272.▲ Up
B32753EHAM KBOS BAW212 BAW L ▼ Dn
2U2653EHAM 100955Z 13006KT 8000 NSC 13/11 Q1024 NOSIG▲ Up
2S2653EHAM▼ Dn
Q02552[LINK ACK]▲ Up
Q02552[LINK TEST]▼ Dn


AIRCRAFT HISTORY
FLIGHT DATE FLIGHT NO. ORIGIN DESTINATION CLEARED ROUTE BLOCK TIME FLIGHT TIME FUEL USED PILOT
2020-11-10BAW212EHAM KBOS 7.5 hrs7 hrs141,016 lbBig Swede
2020-10-29EGLL EHAM EGLL EH625 RW18C1 hrs0.7 hrs0 lbken rose